Historyczne dane pomiarowe

Dodano dane terminowe – wersja testowa.

Dane z okresu 1951-2019

Wersja bazy: 1.34 [2019-03-16, lista zmian], aktualizacja planowana na 2019-04-15

Dane meteo z obszaru Polski uzyskane na podstawie danych udostępnionych przez Instytut Meteorologii i Gospodarki Wodnej – Państwowy Instytut Badawczy.

 

Wybierz Datę:    

       

TemperaturaWilgotnośćWiatrCiśnienieOpadyŚniegCzas trwania zjawisk
 Stacja t tx tn tng RH VA  wxwx mslp ppp RRR   cm mm wxwxwxwxwxwxwx
1986-12-13 0.9 2.4 -0.4- 67.3- 7.7 1.0---- 0.0------------
1986-12-14 -1.2 -0.4 -1.9- 66.5- 8.0 1.3---- 0.8------------
1986-12-15 0.6 2.4 -1.7- 78.3- 8.0 1.0---- 0.0------------
1986-12-16 0.8 1.7 -0.7- 77.8- 8.0 5.0---- 2.7------------
1986-12-17 2.4 3.9 0.3- 76.3- 7.3 12.0---- 2.0------------
1986-12-18 2.5 3.4 1.7- 84.8- 8.0 3.3---- 2.8------------
1986-12-19 2.2 4.0 0.8- 90.8- 8.0 4.3---- 3.3------------
1986-12-20 1.7 2.7 0.8- 84.8- 8.0 15.0---- 3.1------------
1986-12-21 -0.8 1.7 -3.3- 76.5- 5.7 12.0---- 5.8-- 3---------
1986-12-22 -1.7 -0.4 -3.7- 92.8- 7.3 8.3---- 6.4-- 11---------
1986-12-23 -3.0 -0.2 -5.6- 84.5- 8.0 2.7---- 0.2-- 20---------
1986-12-24 -7.1 -5.4 -8.5- 76.8- 8.0 1.0---- 0.0-- 20---------
1986-12-25 -7.2 -5.1-10.1- 80.0- 5.7 3.3---- 0.0-- 19---------
1986-12-26 -6.7 -5.0 -8.5- 70.3- 8.0 7.7---- 0.0-- 19---------
1986-12-27 -4.8 -0.1 -8.9- 79.0- 8.0 6.0---- 0.3-- 18---------
1986-12-28 -1.0 -0.2 -3.5- 86.0- 7.0 2.3---- 1.2-- 15---------
1986-12-29 -1.2 3.5 -6.3- 80.5- 8.0 10.3---- 1.8-- 17---------
1986-12-30 0.2 2.9 -0.7- 72.8- 7.3 15.7---- 2.3-- 15---------
1986-12-31 -3.4 0.3 -5.2- 71.3- 3.3 2.0---- 1.6-- 19---------
1987-01-01 -7.5 -5.2-10.5- 87.0- 4.3 2.3---- 0.4-- 24---------
1987-01-02-15.7-10.4-20.1- 75.3- 2.7 0.7---- 0.0-- 24---------
1987-01-03 -7.2 -1.2-19.9- 80.5- 6.7 6.0---- 1.6-- 24---------
1987-01-04 -7.6 -3.1-10.1- 76.5- 7.3 2.7---- 0.0-- 27---------
1987-01-05 -8.0 -5.7-10.8- 81.5- 8.0 8.3---- 4.8-- 27---------
1987-01-06 -9.7 1.2-17.7- 76.0- 6.0 6.7---- 0.2-- 36---------
1987-01-07-24.6-17.7-27.9- 69.0- 0.0 0.7---- 0.0-- 36---------
1987-01-08-16.0-11.0-28.4- 69.5- 4.0 5.0---- 0.8-- 36---------
1987-01-09-13.8 -9.9-20.9- 74.5- 4.0 4.0---- 0.2-- 37---------
1987-01-10-22.1-19.7-24.9- 69.3- 6.3 1.7---- 0.0-- 37---------
1987-01-11-25.9-22.8-27.5- 65.8- 1.7 1.0---- 0.0-- 37---------
3148.2 ms

 

Źródłem pochodzenia danych jest Instytut Meteorologii i Gospodarki Wodnej – Państwowy Instytut Badawczy. Dane Instytutu Meteorologii i Gospodarki Wodnej – Państwowego Instytutu Badawczego zostały przetworzone.

Dane źródłowe można odnaleźć na stronie https://dane.imgw.pl